createdAt,value
2018-10-07T00:00:30.072Z,12.4
2018-10-07T00:05:30.190Z,12.4
2018-10-07T00:10:30.269Z,12.3
2018-10-07T00:15:30.057Z,12.4
2018-10-07T00:20:30.307Z,12.4
2018-10-07T00:25:30.310Z,12.4
2018-10-07T00:30:42.384Z,12.4
2018-10-07T00:35:42.282Z,12.4
2018-10-07T00:40:42.130Z,12.4
2018-10-07T00:45:42.562Z,12.3
2018-10-07T00:50:42.440Z,12.3
2018-10-07T00:55:42.449Z,12.4
2018-10-07T01:00:42.450Z,12.4
2018-10-07T01:05:44.800Z,12.4
2018-10-07T01:10:44.670Z,12.4
2018-10-07T01:15:58.506Z,12.4
2018-10-07T01:20:58.358Z,12.4
2018-10-07T01:25:58.243Z,12.4
2018-10-07T01:30:58.440Z,12.4
2018-10-07T01:35:58.268Z,12.3
2018-10-07T01:40:58.385Z,12.2
2018-10-07T01:45:58.430Z,12.2
2018-10-07T01:50:58.258Z,12.1
2018-10-07T01:55:58.382Z,12.1
2018-10-07T02:01:09.383Z,12.1
2018-10-07T02:06:09.314Z,12.1
2018-10-07T02:11:09.252Z,12.1
2018-10-07T02:16:09.110Z,12
2018-10-07T02:21:09.321Z,12
2018-10-07T02:26:09.134Z,12
2018-10-07T02:31:09.273Z,12
2018-10-07T02:36:09.317Z,12
2018-10-07T02:41:09.143Z,12
2018-10-07T02:46:09.271Z,12
2018-10-07T02:51:10.346Z,12
2018-10-07T02:56:09.132Z,12
2018-10-07T03:01:11.040Z,12
2018-10-07T03:06:10.938Z,12
2018-10-07T03:11:23.163Z,12
2018-10-07T03:16:23.004Z,12.1
2018-10-07T03:21:22.898Z,12.1
2018-10-07T03:26:22.910Z,12.1
2018-10-07T03:31:23.105Z,12.1
2018-10-07T03:36:23.032Z,12.1
2018-10-07T03:41:22.896Z,12.1
2018-10-07T03:46:23.016Z,12.2
2018-10-07T03:51:23.249Z,12.2
2018-10-07T03:56:34.839Z,12.3
2018-10-07T04:01:34.685Z,12.3
2018-10-07T04:06:34.705Z,12.4
2018-10-07T04:11:34.568Z,12.4
2018-10-07T04:16:34.778Z,12.4
2018-10-07T04:21:34.573Z,12.5
2018-10-07T04:26:34.735Z,12.5
2018-10-07T04:31:34.577Z,12.5
2018-10-07T04:36:34.817Z,12.5
2018-10-07T04:41:34.749Z,12.5
2018-10-07T04:46:34.592Z,12.6
2018-10-07T04:51:34.702Z,12.6
2018-10-07T04:56:36.595Z,12.6
2018-10-07T05:01:36.424Z,12.6
2018-10-07T05:06:46.800Z,12.6
2018-10-07T05:11:46.536Z,12.5
2018-10-07T05:16:46.648Z,12.5
2018-10-07T05:21:46.681Z,12.5
2018-10-07T05:26:46.567Z,12.5
2018-10-07T05:31:46.570Z,12.6
2018-10-07T05:36:46.680Z,12.6
2018-10-07T05:41:48.030Z,12.6
2018-10-07T05:46:47.988Z,12.6
2018-10-07T05:52:00.684Z,12.7
2018-10-07T05:57:03.388Z,12.7
2018-10-07T06:02:00.447Z,12.7
2018-10-07T06:07:00.733Z,12.8
2018-10-07T06:12:00.688Z,12.8
2018-10-07T06:17:00.669Z,12.9
2018-10-07T06:22:00.693Z,13
2018-10-07T06:27:00.685Z,13
2018-10-07T06:32:00.799Z,13.1
2018-10-07T06:37:12.573Z,13.1
2018-10-07T06:42:12.417Z,13.2
2018-10-07T06:47:12.447Z,13.3
2018-10-07T06:52:12.492Z,13.3
2018-10-07T06:57:12.508Z,13.4
2018-10-07T07:02:12.318Z,13.5
2018-10-07T07:07:12.391Z,13.7
2018-10-07T07:12:17.271Z,13.8
2018-10-07T07:17:16.855Z,13.9
2018-10-07T07:22:29.668Z,13.9
2018-10-07T07:27:29.399Z,14.1
2018-10-07T07:32:29.409Z,14.2
2018-10-07T07:37:29.437Z,14.2
2018-10-07T07:42:29.480Z,14.3
2018-10-07T07:47:30.751Z,14.4
2018-10-07T07:52:29.393Z,14.6
2018-10-07T07:57:32.323Z,14.7
2018-10-07T08:02:32.051Z,14.7
2018-10-07T08:07:44.344Z,14.9
2018-10-07T08:12:44.045Z,15.1
2018-10-07T08:17:44.100Z,15.1
2018-10-07T08:22:44.080Z,15.1
2018-10-07T08:27:44.225Z,15.2
2018-10-07T08:32:44.219Z,15.2
2018-10-07T08:37:44.260Z,15.2
2018-10-07T08:42:46.748Z,15.2
2018-10-07T08:47:46.568Z,15.3
2018-10-07T08:52:46.418Z,15.3
2018-10-07T08:57:46.347Z,15.3
2018-10-07T09:02:47.052Z,15.5
2018-10-07T09:07:50.923Z,15.6
2018-10-07T09:12:50.766Z,15.7
2018-10-07T09:18:03.229Z,15.6
2018-10-07T09:23:03.005Z,15.6
2018-10-07T09:28:02.967Z,15.6
2018-10-07T09:33:02.979Z,15.6
2018-10-07T09:38:02.973Z,15.6
2018-10-07T09:43:03.578Z,15.6
2018-10-07T09:48:02.991Z,15.6
2018-10-07T09:53:02.981Z,15.6
2018-10-07T09:58:03.022Z,15.6
2018-10-07T10:03:17.025Z,15.6
2018-10-07T10:08:16.728Z,15.6
2018-10-07T10:13:16.752Z,15.6
2018-10-07T10:18:16.992Z,15.6
2018-10-07T10:23:16.895Z,15.7
2018-10-07T10:28:16.718Z,15.7
2018-10-07T10:33:16.977Z,15.7
2018-10-07T10:38:16.998Z,15.8
2018-10-07T10:43:17.134Z,15.8
2018-10-07T10:48:29.298Z,15.8
2018-10-07T10:53:29.034Z,15.8
2018-10-07T10:58:29.131Z,15.8
2018-10-07T11:03:29.417Z,15.8
2018-10-07T11:08:29.199Z,15.8
2018-10-07T11:13:28.971Z,15.8
2018-10-07T11:18:29.029Z,15.8
2018-10-07T11:23:29.218Z,15.8
2018-10-07T11:28:29.035Z,15.9
2018-10-07T11:33:28.997Z,16
2018-10-07T11:38:29.000Z,16.1
2018-10-07T11:43:29.042Z,16.2
2018-10-07T11:48:29.023Z,16.3
2018-10-07T11:53:29.042Z,16.3
2018-10-07T11:58:39.789Z,16.3
2018-10-07T12:03:39.565Z,16.4
2018-10-07T12:08:39.542Z,16.4
2018-10-07T12:13:39.545Z,16.4
2018-10-07T12:18:39.555Z,16.4
2018-10-07T12:23:40.513Z,16.4
2018-10-07T12:28:39.546Z,16.4
2018-10-07T12:33:40.836Z,16.4
2018-10-07T12:38:40.587Z,16.4
2018-10-07T12:43:54.413Z,16.4
2018-10-07T12:48:54.177Z,16.4
2018-10-07T12:53:54.147Z,16.4
2018-10-07T12:58:54.413Z,16.4
2018-10-07T13:03:54.229Z,16.4
2018-10-07T13:08:54.878Z,16.3
2018-10-07T13:13:54.160Z,16.3
2018-10-07T13:18:55.406Z,16.3
2018-10-07T13:23:55.135Z,16.4
2018-10-07T13:29:08.178Z,16.4
2018-10-07T13:34:07.906Z,16.4
2018-10-07T13:39:07.920Z,16.4
2018-10-07T13:44:07.909Z,16.5
2018-10-07T13:49:08.053Z,16.5
2018-10-07T13:54:07.878Z,16.5
2018-10-07T13:59:07.925Z,16.5
2018-10-07T14:04:09.249Z,16.5
2018-10-07T14:09:09.022Z,16.4
2018-10-07T14:14:20.647Z,16.4
2018-10-07T14:19:20.720Z,16.4
2018-10-07T14:24:20.890Z,16.4
2018-10-07T14:29:20.814Z,16.3
2018-10-07T14:34:20.392Z,16.3
2018-10-07T14:39:20.639Z,16.3
2018-10-07T14:44:20.963Z,16.2
2018-10-07T14:49:21.639Z,16.2
2018-10-07T14:54:21.890Z,16.2
2018-10-07T14:59:22.025Z,16.2
2018-10-07T15:04:21.361Z,16.2
2018-10-07T15:09:21.528Z,16.1
2018-10-07T15:14:25.348Z,16.2
2018-10-07T15:19:25.108Z,16.2
2018-10-07T15:24:38.088Z,16.1
2018-10-07T15:29:37.904Z,16.1
2018-10-07T15:34:37.844Z,16.1
2018-10-07T15:39:37.822Z,16.1
2018-10-07T15:44:37.851Z,16
2018-10-07T15:49:37.998Z,16
2018-10-07T15:54:37.916Z,16
2018-10-07T15:59:40.656Z,15.9
2018-10-07T16:04:40.506Z,15.9
2018-10-07T16:09:55.868Z,15.9
2018-10-07T16:14:55.541Z,15.8
2018-10-07T16:19:55.541Z,15.8
2018-10-07T16:24:55.547Z,15.8
2018-10-07T16:29:55.613Z,15.8
2018-10-07T16:34:55.561Z,15.7
2018-10-07T16:39:55.864Z,15.7
2018-10-07T16:44:56.080Z,15.7
2018-10-07T16:49:55.774Z,15.6
2018-10-07T16:54:56.295Z,15.6
2018-10-07T16:59:55.710Z,15.6
2018-10-07T17:04:55.773Z,15.6
2018-10-07T17:09:55.762Z,15.6
2018-10-07T17:14:56.351Z,15.6
2018-10-07T17:19:55.952Z,15.5
2018-10-07T17:25:00.290Z,15.5
2018-10-07T17:29:59.753Z,15.5
2018-10-07T17:35:02.501Z,15.5
2018-10-07T17:40:02.377Z,15.4
2018-10-07T17:45:14.226Z,15.4
2018-10-07T17:50:13.973Z,15.4
2018-10-07T17:55:13.957Z,15.4
2018-10-07T18:00:13.972Z,15.3
2018-10-07T18:05:13.988Z,15.3
2018-10-07T18:10:13.987Z,15.3
2018-10-07T18:15:13.980Z,15.3
2018-10-07T18:20:14.000Z,15.3
2018-10-07T18:25:13.971Z,15.2
2018-10-07T18:30:26.071Z,15.2
2018-10-07T18:35:25.812Z,15.2
2018-10-07T18:40:25.826Z,15.2
2018-10-07T18:45:25.796Z,15.1
2018-10-07T18:50:25.794Z,15.1
2018-10-07T18:55:25.775Z,15.1
2018-10-07T19:00:25.993Z,15
2018-10-07T19:05:31.178Z,15
2018-10-07T19:10:30.850Z,14.9
2018-10-07T19:15:43.598Z,14.8
2018-10-07T19:20:43.511Z,14.8
2018-10-07T19:25:43.318Z,14.7
2018-10-07T19:30:43.324Z,14.7
2018-10-07T19:35:43.503Z,14.7
2018-10-07T19:40:43.324Z,14.6
2018-10-07T19:45:43.337Z,14.6
2018-10-07T19:50:46.593Z,14.5
2018-10-07T19:55:46.530Z,14.5
2018-10-07T20:00:58.616Z,14.5
2018-10-07T20:05:58.319Z,14.4
2018-10-07T20:10:58.496Z,14.4
2018-10-07T20:15:58.375Z,14.4
2018-10-07T20:20:58.785Z,14.4
2018-10-07T20:25:58.551Z,14.4
2018-10-07T20:30:58.574Z,14.3
2018-10-07T20:35:58.545Z,14.4
2018-10-07T20:40:58.559Z,14.4
2018-10-07T20:46:10.861Z,14.4
2018-10-07T20:51:10.585Z,14.4
2018-10-07T20:56:10.568Z,14.4
2018-10-07T21:01:10.569Z,14.4
2018-10-07T21:06:10.582Z,14.4
2018-10-07T21:11:10.584Z,14.4
2018-10-07T21:16:10.569Z,14.4
2018-10-07T21:21:13.621Z,14.4
2018-10-07T21:26:10.620Z,14.4
2018-10-07T21:31:22.350Z,14.4
2018-10-07T21:36:22.206Z,14.4
2018-10-07T21:41:22.281Z,14.3
2018-10-07T21:46:22.285Z,14.3
2018-10-07T21:51:22.070Z,14.3
2018-10-07T21:56:22.080Z,14.3
2018-10-07T22:01:22.234Z,14.3
2018-10-07T22:06:22.224Z,14.3
2018-10-07T22:11:22.089Z,14.3
2018-10-07T22:16:22.081Z,14.3
2018-10-07T22:21:22.105Z,14.3
2018-10-07T22:26:22.268Z,14.3
2018-10-07T22:31:22.101Z,14.3
2018-10-07T22:36:22.226Z,14.3
2018-10-07T22:41:33.037Z,14.2
2018-10-07T22:46:32.739Z,14.2
2018-10-07T22:51:32.752Z,14.2
2018-10-07T22:56:32.904Z,14.2
2018-10-07T23:01:32.940Z,14.2
2018-10-07T23:06:32.992Z,14.1
2018-10-07T23:11:32.751Z,14.1
2018-10-07T23:16:32.745Z,14
2018-10-07T23:21:32.866Z,14
2018-10-07T23:26:46.893Z,13.9
2018-10-07T23:31:46.666Z,13.9
2018-10-07T23:36:46.474Z,13.9
2018-10-07T23:41:46.634Z,13.9
2018-10-07T23:46:46.471Z,13.9
2018-10-07T23:51:46.662Z,13.9
2018-10-07T23:56:46.483Z,13.8
